Terminal Aerodrome Forecast
Issued by NWS Jackson, MS

Home | Current Version | Previous Version | Text Only | Print | Product List | Glossary On
Versions: 1 2 3 4 5 6 7 8 9 10 11 12 13 14 15 16 17
119
FTUS44 KJAN 282336
TAFHBG
TAF
KHBG 282336Z 2900/2924 18007KT P6SM FEW070
     FM290600 16003KT 5SM BR BKN007
     FM291000 00000KT 2SM BR BKN004
     FM291400 17011KT P6SM SCT030
     FM291700 17013G19KT P6SM SCT050=

USA.gov is the U.S. government's official web portal to all federal, state and local government web resources and services.